Time;durP1;ratioP1;P1;durP2;ratioP2;P2;SDS_P1;SDS_P2;PMS_P1;PMS_P2;Temp;Humidity;BMP_temperature;BMP_pressure;BME280_temperature;BME280_humidity;BME280_pressure;Samples;Min_cycle;Max_cycle;Signal;HPM_P1;HPM_P2
2022/06/14 00:02:27;;;;;;;4.38;2.42;;;;;;;;;;5013284;28;20076;-78
2022/06/14 00:04:54;;;;;;;9.60;2.50;;;;;;;;;;5013478;28;20080;-76
2022/06/14 00:07:20;;;;;;;4.63;2.33;;;;;;;;;;5012814;28;20108;-76
2022/06/14 00:09:46;;;;;;;6.88;2.90;;;;;;;;;;5011309;28;20478;-75
2022/06/14 00:12:13;;;;;;;3.50;2.40;;;;;;;;;;5013514;28;20034;-74
2022/06/14 00:14:40;;;;;;;4.35;2.65;;;;;;;;;;5013632;28;20053;-74
2022/06/14 00:17:06;;;;;;;4.80;2.50;;;;;;;;;;5010585;28;20026;-77
2022/06/14 00:19:32;;;;;;;3.17;2.50;;;;;;;;;;5012470;28;20061;-78
2022/06/14 00:22:01;;;;;;;4.22;2.85;;;;;;;;;;5010732;28;20026;-76
2022/06/14 00:24:28;;;;;;;4.63;2.72;;;;;;;;;;5013063;28;20029;-77
2022/06/14 00:26:54;;;;;;;7.20;3.10;;;;;;;;;;5012631;28;20052;-75
2022/06/14 00:29:20;;;;;;;7.03;3.00;;;;;;;;;;5011921;28;20038;-78
2022/06/14 00:31:46;;;;;;;4.82;2.80;;;;;;;;;;5008773;28;20033;-78
2022/06/14 00:34:12;;;;;;;8.82;3.30;;;;;;;;;;5012547;28;20038;-78
2022/06/14 00:36:38;;;;;;;8.85;4.15;;;;;;;;;;5012597;28;20026;-74
2022/06/14 00:39:06;;;;;;;7.45;2.90;;;;;;;;;;5012108;28;20105;-73
2022/06/14 00:41:42;;;;;;;5.00;2.90;;;;;;;;;;5009945;28;20042;-74
2022/06/14 00:44:19;;;;;;;5.38;2.78;;;;;;;;;;5012684;28;20064;-74
2022/06/14 00:46:57;;;;;;;6.10;2.90;;;;;;;;;;5012692;28;20032;-73
2022/06/14 00:49:27;;;;;;;3.55;2.65;;;;;;;;;;5012529;28;20110;-77
2022/06/14 00:52:02;;;;;;;3.10;2.40;;;;;;;;;;5011321;28;20026;-79
2022/06/14 00:54:32;;;;;;;4.85;2.70;;;;;;;;;;5011958;28;20068;-75
2022/06/14 00:57:09;;;;;;;4.00;2.80;;;;;;;;;;5012484;28;20037;-77
2022/06/14 00:59:41;;;;;;;8.90;3.13;;;;;;;;;;5012025;28;20032;-76
2022/06/14 01:02:27;;;;;;;3.75;2.70;;;;;;;;;;5011671;28;20037;-76
2022/06/14 01:04:54;;;;;;;5.28;2.80;;;;;;;;;;5010329;28;20025;-76
2022/06/14 01:07:23;;;;;;;5.13;2.92;;;;;;;;;;5012073;28;20021;-78
2022/06/14 01:09:51;;;;;;;5.57;2.90;;;;;;;;;;5012208;28;20033;-77
2022/06/14 01:12:19;;;;;;;4.03;2.97;;;;;;;;;;5010978;28;20510;-77
2022/06/14 01:14:51;;;;;;;4.70;3.38;;;;;;;;;;5002785;28;20551;-75
2022/06/14 01:17:18;;;;;;;6.63;3.00;;;;;;;;;;5012365;28;20030;-76
2022/06/14 01:19:44;;;;;;;5.53;2.80;;;;;;;;;;5012153;28;20017;-77
2022/06/14 01:22:10;;;;;;;4.50;3.10;;;;;;;;;;5012123;28;20026;-76
2022/06/14 01:24:37;;;;;;;3.97;2.55;;;;;;;;;;5010082;28;20138;-77
2022/06/14 01:27:04;;;;;;;4.45;2.90;;;;;;;;;;5011937;28;20502;-77
2022/06/14 01:29:33;;;;;;;3.92;2.67;;;;;;;;;;5012143;28;20467;-76
2022/06/14 01:32:01;;;;;;;5.32;2.65;;;;;;;;;;5011181;28;20053;-77
2022/06/14 01:34:30;;;;;;;4.07;2.80;;;;;;;;;;5011423;28;20372;-75
2022/06/14 01:36:58;;;;;;;5.20;2.78;;;;;;;;;;5011692;28;20038;-76
2022/06/14 01:39:24;;;;;;;3.47;2.70;;;;;;;;;;5011582;28;20052;-76
2022/06/14 01:41:50;;;;;;;4.90;2.70;;;;;;;;;;5018931;28;20060;-77
2022/06/14 01:44:19;;;;;;;4.32;2.97;;;;;;;;;;5011346;28;20446;-75
2022/06/14 01:46:51;;;;;;;5.47;2.70;;;;;;;;;;5009511;28;20437;-78
2022/06/14 01:52:15;;;;;;;5.13;2.67;;;;;;;;;;5008571;28;20060;-76
2022/06/14 01:54:44;;;;;;;3.63;2.60;;;;;;;;;;5011701;28;20052;-76
2022/06/14 01:57:16;;;;;;;4.63;2.78;;;;;;;;;;5010147;28;20521;-75
2022/06/14 01:59:48;;;;;;;3.53;2.55;;;;;;;;;;5014872;28;20565;-75
2022/06/14 02:02:17;;;;;;;5.18;2.75;;;;;;;;;;5012855;28;20160;-75
2022/06/14 02:04:53;;;;;;;4.18;2.97;;;;;;;;;;5014204;28;20105;-76
2022/06/14 02:07:19;;;;;;;3.78;2.70;;;;;;;;;;5013764;28;20030;-77
2022/06/14 02:09:54;;;;;;;5.82;2.45;;;;;;;;;;4997456;28;20037;-77
2022/06/14 02:12:23;;;;;;;5.00;2.97;;;;;;;;;;4997558;28;20040;-76
2022/06/14 02:15:00;;;;;;;3.17;2.42;;;;;;;;;;5014608;28;20033;-76
2022/06/14 02:17:31;;;;;;;5.53;2.60;;;;;;;;;;5014756;28;20022;-76
2022/06/14 02:20:01;;;;;;;4.10;2.63;;;;;;;;;;5014619;28;20475;-76
2022/06/14 02:22:36;;;;;;;4.30;2.75;;;;;;;;;;4997180;28;20073;-76
2022/06/14 02:25:05;;;;;;;3.92;2.63;;;;;;;;;;5001394;28;20038;-77
2022/06/14 02:27:37;;;;;;;9.88;2.58;;;;;;;;;;5014832;28;20428;-76
2022/06/14 02:30:09;;;;;;;4.78;2.50;;;;;;;;;;5007071;28;20041;-76
2022/06/14 02:32:45;;;;;;;4.65;2.40;;;;;;;;;;5008357;28;20092;-76
2022/06/14 02:35:22;;;;;;;5.15;2.50;;;;;;;;;;5013977;28;20030;-75
2022/06/14 02:37:53;;;;;;;4.07;2.30;;;;;;;;;;5014264;28;20049;-76
2022/06/14 02:40:21;;;;;;;3.80;2.38;;;;;;;;;;5015525;28;20450;-76
2022/06/14 02:42:54;;;;;;;4.53;2.30;;;;;;;;;;5015659;28;20109;-76
2022/06/14 02:45:28;;;;;;;3.90;2.40;;;;;;;;;;5014702;28;20022;-75
2022/06/14 02:47:57;;;;;;;4.60;2.50;;;;;;;;;;5013025;28;20391;-75
2022/06/14 02:50:27;;;;;;;2.85;2.20;;;;;;;;;;5005299;28;20036;-76
2022/06/14 02:53:02;;;;;;;4.45;2.20;;;;;;;;;;5014209;28;20037;-76
2022/06/14 02:55:34;;;;;;;4.70;2.30;;;;;;;;;;5015682;28;20542;-76
2022/06/14 02:58:04;;;;;;;4.28;2.40;;;;;;;;;;5017191;28;20022;-77
2022/06/14 03:00:50;;;;;;;4.45;2.47;;;;;;;;;;4998434;28;20398;-77
2022/06/14 03:03:20;;;;;;;4.05;2.53;;;;;;;;;;5015319;28;20041;-76
2022/06/14 03:05:49;;;;;;;4.85;2.78;;;;;;;;;;5017098;28;20037;-76
2022/06/14 03:08:16;;;;;;;4.15;2.58;;;;;;;;;;5015784;28;20021;-76
2022/06/14 03:10:54;;;;;;;5.78;2.80;;;;;;;;;;5016684;28;20072;-76
2022/06/14 03:13:23;;;;;;;5.00;2.60;;;;;;;;;;5018346;28;20029;-76
2022/06/14 03:15:53;;;;;;;2.80;2.40;;;;;;;;;;5018192;28;20029;-77
2022/06/14 03:18:23;;;;;;;5.07;2.40;;;;;;;;;;5017283;28;20033;-76
2022/06/14 03:20:55;;;;;;;4.43;2.50;;;;;;;;;;5015739;28;20034;-75
2022/06/14 03:23:21;;;;;;;3.88;2.60;;;;;;;;;;5019037;28;20026;-76
2022/06/14 03:26:06;;;;;;;3.95;2.47;;;;;;;;;;5020486;28;20118;-78
2022/06/14 03:28:41;;;;;;;3.35;2.30;;;;;;;;;;5020908;28;20021;-77
2022/06/14 03:31:19;;;;;;;3.05;2.22;;;;;;;;;;5016701;28;20030;-75
2022/06/14 03:34:04;;;;;;;4.88;2.25;;;;;;;;;;5016740;28;20056;-76
2022/06/14 03:36:30;;;;;;;7.65;2.60;;;;;;;;;;5015747;28;20076;-75
2022/06/14 03:38:58;;;;;;;4.22;2.70;;;;;;;;;;5015898;28;20061;-75
2022/06/14 03:41:26;;;;;;;4.43;2.30;;;;;;;;;;5015142;28;20038;-75
2022/06/14 03:43:53;;;;;;;2.80;2.20;;;;;;;;;;5015570;28;20050;-76
2022/06/14 03:46:22;;;;;;;3.33;2.28;;;;;;;;;;5014904;28;20052;-76
2022/06/14 03:48:56;;;;;;;4.88;2.60;;;;;;;;;;5015662;28;20022;-80
2022/06/14 03:51:35;;;;;;;4.75;2.30;;;;;;;;;;5014040;28;20029;-75
2022/06/14 03:54:07;;;;;;;3.90;2.50;;;;;;;;;;5015102;28;20041;-77
2022/06/14 03:56:48;;;;;;;3.13;2.20;;;;;;;;;;5005944;28;20018;-76
2022/06/14 03:59:37;;;;;;;4.10;2.30;;;;;;;;;;5017733;28;20064;-75
2022/06/14 04:02:07;;;;;;;6.82;2.40;;;;;;;;;;4939836;29;20043;-77
2022/06/14 04:04:45;;;;;;;4.95;2.60;;;;;;;;;;4935796;29;20097;-76
2022/06/14 04:07:37;;;;;;;3.47;2.30;;;;;;;;;;4934863;29;20044;-75
2022/06/14 04:10:03;;;;;;;6.30;2.50;;;;;;;;;;4934249;29;20524;-76
2022/06/14 04:13:08;;;;;;;3.95;2.50;;;;;;;;;;4939307;29;20048;-76
2022/06/14 04:15:34;;;;;;;5.20;2.28;;;;;;;;;;4897152;29;20393;-76
2022/06/14 04:18:02;;;;;;;5.13;2.30;;;;;;;;;;4896502;29;20056;-76
2022/06/14 04:20:42;;;;;;;4.32;2.35;;;;;;;;;;4897094;29;20052;-76
2022/06/14 04:23:27;;;;;;;7.70;2.50;;;;;;;;;;4895188;29;20033;-75
2022/06/14 04:25:55;;;;;;;5.15;2.38;;;;;;;;;;4897108;29;20108;-75
2022/06/14 04:28:53;;;;;;;9.80;2.67;;;;;;;;;;4896987;29;20506;-75
2022/06/14 04:31:19;;;;;;;4.80;2.47;;;;;;;;;;4840786;29;20046;-75
2022/06/14 04:33:53;;;;;;;4.72;2.35;;;;;;;;;;4839276;29;20086;-75
2022/06/14 04:36:22;;;;;;;6.20;2.50;;;;;;;;;;4842300;29;20090;-76
2022/06/14 04:38:54;;;;;;;4.53;2.30;;;;;;;;;;4853535;29;20103;-75
2022/06/14 04:41:24;;;;;;;5.95;2.60;;;;;;;;;;4877047;29;20112;-77
2022/06/14 04:43:58;;;;;;;4.82;2.67;;;;;;;;;;4875815;29;20420;-75
2022/06/14 04:46:30;;;;;;;4.45;2.38;;;;;;;;;;4903254;29;20047;-75
2022/06/14 04:48:59;;;;;;;6.05;2.70;;;;;;;;;;4916491;29;20036;-77
2022/06/14 04:51:29;;;;;;;8.35;3.03;;;;;;;;;;4913860;29;20581;-77
2022/06/14 04:54:01;;;;;;;5.95;2.60;;;;;;;;;;4913262;29;20525;-77
2022/06/14 04:56:33;;;;;;;4.60;2.78;;;;;;;;;;4913892;29;20394;-77
2022/06/14 04:59:08;;;;;;;5.03;2.70;;;;;;;;;;4912737;29;20521;-78
2022/06/14 05:01:55;;;;;;;6.38;2.60;;;;;;;;;;4917096;29;20467;-77
2022/06/14 05:04:23;;;;;;;4.85;2.53;;;;;;;;;;4914440;29;20083;-76
2022/06/14 05:06:56;;;;;;;3.95;2.42;;;;;;;;;;4959410;28;20030;-76
2022/06/14 05:09:25;;;;;;;6.75;2.60;;;;;;;;;;5011053;28;20026;-75
2022/06/14 05:11:56;;;;;;;4.90;2.50;;;;;;;;;;5010631;28;20032;-75
2022/06/14 05:14:26;;;;;;;8.00;2.60;;;;;;;;;;5008328;28;20033;-72
2022/06/14 05:17:02;;;;;;;6.25;3.20;;;;;;;;;;5007444;28;20021;-73
2022/06/14 05:19:44;;;;;;;3.53;2.60;;;;;;;;;;5010254;28;20120;-71
2022/06/14 05:22:18;;;;;;;7.40;2.75;;;;;;;;;;5009115;28;20080;-74
2022/06/14 05:24:45;;;;;;;26.20;4.22;;;;;;;;;;5004438;28;20018;-81
2022/06/14 05:27:11;;;;;;;4.45;2.60;;;;;;;;;;5008873;28;20067;-76
2022/06/14 05:29:46;;;;;;;5.63;2.60;;;;;;;;;;5010472;28;20105;-76
2022/06/14 05:32:21;;;;;;;7.15;2.85;;;;;;;;;;5010214;28;20028;-76
2022/06/14 05:34:54;;;;;;;6.13;2.88;;;;;;;;;;5016025;28;20034;-74
2022/06/14 05:37:39;;;;;;;6.57;2.90;;;;;;;;;;5015073;28;20076;-78
2022/06/14 05:40:13;;;;;;;5.82;3.20;;;;;;;;;;5014102;28;20163;-74
2022/06/14 05:42:45;;;;;;;9.02;2.50;;;;;;;;;;5013501;28;20017;-77
2022/06/14 05:45:17;;;;;;;6.57;2.78;;;;;;;;;;5016689;28;20030;-76
2022/06/14 05:47:46;;;;;;;7.40;3.30;;;;;;;;;;5016121;28;20561;-76
2022/06/14 05:50:15;;;;;;;9.80;2.90;;;;;;;;;;5016590;28;20041;-80
2022/06/14 05:52:47;;;;;;;6.85;3.00;;;;;;;;;;5016593;28;20030;-76
2022/06/14 05:55:17;;;;;;;9.05;3.10;;;;;;;;;;5016270;28;20030;-81
2022/06/14 05:57:53;;;;;;;7.25;2.88;;;;;;;;;;5015659;28;20472;-79
2022/06/14 06:00:39;;;;;;;8.57;2.92;;;;;;;;;;5016034;28;20030;-75
2022/06/14 06:03:08;;;;;;;4.60;2.70;;;;;;;;;;5005227;28;20100;-81
2022/06/14 06:05:40;;;;;;;8.98;2.78;;;;;;;;;;5015165;28;20464;-80
2022/06/14 06:08:21;;;;;;;7.07;3.08;;;;;;;;;;5015398;28;20030;-78
2022/06/14 06:10:50;;;;;;;11.18;3.13;;;;;;;;;;5015362;28;20067;-80
2022/06/14 06:13:16;;;;;;;5.07;2.95;;;;;;;;;;4997790;28;20121;-78
2022/06/14 06:15:47;;;;;;;5.78;2.80;;;;;;;;;;5015401;28;20106;-80
2022/06/14 06:18:17;;;;;;;5.85;2.85;;;;;;;;;;5002405;28;20036;-78
2022/06/14 06:20:50;;;;;;;5.10;2.80;;;;;;;;;;5014073;28;20476;-77
2022/06/14 06:23:18;;;;;;;6.15;3.08;;;;;;;;;;5009717;28;20106;-78
2022/06/14 06:25:53;;;;;;;5.00;3.10;;;;;;;;;;5013125;28;20068;-75
2022/06/14 06:28:19;;;;;;;7.72;2.90;;;;;;;;;;5013478;28;20030;-74
2022/06/14 06:31:20;;;;;;;5.85;2.83;;;;;;;;;;5012813;28;20373;-74
2022/06/14 06:33:51;;;;;;;7.60;3.00;;;;;;;;;;4953922;28;20090;-74
2022/06/14 06:36:18;;;;;;;7.07;3.05;;;;;;;;;;4959242;28;20464;-86
2022/06/14 06:39:02;;;;;;;6.95;3.03;;;;;;;;;;4958290;28;20073;-75
2022/06/14 06:41:50;;;;;;;5.30;2.80;;;;;;;;;;4937088;28;20058;-82
2022/06/14 06:44:20;;;;;;;8.25;3.10;;;;;;;;;;4954486;28;20416;-74
2022/06/14 06:46:49;;;;;;;6.30;2.95;;;;;;;;;;4951279;28;20071;-79
2022/06/14 06:49:16;;;;;;;9.63;3.72;;;;;;;;;;4952262;28;20062;-80
2022/06/14 06:51:47;;;;;;;6.53;3.10;;;;;;;;;;4955698;28;20114;-85
2022/06/14 06:54:22;;;;;;;6.57;3.13;;;;;;;;;;4955981;28;20055;-76
2022/06/14 06:56:51;;;;;;;9.52;3.70;;;;;;;;;;4954594;28;20132;-74
2022/06/14 06:59:31;;;;;;;7.85;3.42;;;;;;;;;;4956129;28;20163;-73
2022/06/14 07:02:00;;;;;;;6.13;2.90;;;;;;;;;;4952942;28;20518;-79
2022/06/14 07:07:18;;;;;;;7.60;3.10;;;;;;;;;;4974667;28;20399;-76
2022/06/14 07:09:59;;;;;;;6.65;3.55;;;;;;;;;;5010847;28;20483;-81
2022/06/14 07:12:38;;;;;;;7.88;3.55;;;;;;;;;;5013407;28;20026;-76
2022/06/14 07:15:06;;;;;;;7.60;3.13;;;;;;;;;;5002997;28;20395;-79
2022/06/14 07:17:38;;;;;;;9.23;3.08;;;;;;;;;;5014169;28;20093;-81
2022/06/14 07:20:07;;;;;;;6.70;3.13;;;;;;;;;;5014084;28;20080;-74
2022/06/14 07:22:37;;;;;;;10.48;3.00;;;;;;;;;;5013771;28;20041;-81
2022/06/14 07:25:03;;;;;;;5.03;2.78;;;;;;;;;;5006846;28;20079;-73
2022/06/14 07:27:34;;;;;;;7.10;2.95;;;;;;;;;;5012517;28;20029;-75
2022/06/14 07:30:06;;;;;;;7.88;3.30;;;;;;;;;;5013809;28;20030;-81
2022/06/14 07:32:35;;;;;;;4.57;2.90;;;;;;;;;;5014083;28;20061;-77
2022/06/14 07:35:01;;;;;;;6.85;2.97;;;;;;;;;;5011403;28;20029;-82
2022/06/14 07:37:34;;;;;;;8.45;3.45;;;;;;;;;;5013082;28;20057;-80
2022/06/14 07:40:00;;;;;;;;;;;;;;;;;;5011648;28;20046;-79
2022/06/14 07:42:31;;;;;;;7.00;3.20;;;;;;;;;;5012254;28;19913;-77
2022/06/14 07:45:00;;;;;;;15.60;3.53;;;;;;;;;;5010484;28;20030;-83
2022/06/14 07:47:36;;;;;;;9.55;3.40;;;;;;;;;;5011224;28;20034;-77
2022/06/14 07:50:17;;;;;;;6.05;2.97;;;;;;;;;;5012916;28;20049;-78
2022/06/14 07:52:43;;;;;;;5.03;2.97;;;;;;;;;;5008242;28;20034;-75
2022/06/14 07:55:12;;;;;;;5.88;3.22;;;;;;;;;;5011842;28;20042;-75
2022/06/14 07:57:41;;;;;;;7.55;3.53;;;;;;;;;;4998904;28;20040;-75
2022/06/14 08:02:58;;;;;;;5.88;2.80;;;;;;;;;;5010080;28;20558;-74
2022/06/14 08:05:27;;;;;;;7.50;3.22;;;;;;;;;;5012777;28;20427;-75
2022/06/14 08:07:55;;;;;;;12.35;2.80;;;;;;;;;;5013084;28;20029;-79
2022/06/14 08:10:25;;;;;;;5.40;2.92;;;;;;;;;;5012825;28;20030;-74
2022/06/14 08:12:53;;;;;;;9.75;3.28;;;;;;;;;;5012113;28;20038;-75
2022/06/14 08:15:23;;;;;;;9.25;3.00;;;;;;;;;;5011344;28;20076;-74
2022/06/14 08:17:54;;;;;;;10.40;3.40;;;;;;;;;;5011915;28;20037;-78
2022/06/14 08:20:21;;;;;;;31.33;5.15;;;;;;;;;;5010773;28;20080;-81
2022/06/14 08:22:52;;;;;;;8.80;2.90;;;;;;;;;;5012404;28;20097;-81
2022/06/14 08:25:22;;;;;;;9.40;3.08;;;;;;;;;;5012846;28;20038;-81
2022/06/14 08:27:55;;;;;;;11.63;3.40;;;;;;;;;;4994276;28;20065;-79
2022/06/14 08:30:24;;;;;;;9.88;3.05;;;;;;;;;;5008073;28;20026;-79
2022/06/14 08:33:13;;;;;;;6.75;2.72;;;;;;;;;;5012478;28;20033;-77
2022/06/14 08:35:48;;;;;;;5.70;2.80;;;;;;;;;;5001927;28;20141;-77
2022/06/14 08:38:17;;;;;;;7.65;3.20;;;;;;;;;;5006770;28;20054;-79
2022/06/14 08:40:56;;;;;;;7.22;3.22;;;;;;;;;;4993716;28;20036;-83
2022/06/14 08:43:44;;;;;;;5.93;3.33;;;;;;;;;;5011504;28;20021;-77
2022/06/14 08:46:11;;;;;;;4.57;3.10;;;;;;;;;;5005496;28;20022;-80
2022/06/14 08:49:08;;;;;;;7.03;3.10;;;;;;;;;;4994724;28;20025;-72
2022/06/14 08:51:40;;;;;;;5.07;2.70;;;;;;;;;;5011610;28;20143;-81
2022/06/14 08:54:25;;;;;;;7.72;3.03;;;;;;;;;;5011403;28;20040;-81
2022/06/14 08:56:57;;;;;;;6.72;3.08;;;;;;;;;;5011551;28;20113;-80
2022/06/14 08:59:38;;;;;;;9.73;3.22;;;;;;;;;;5011934;28;20480;-75
2022/06/14 09:02:16;;;;;;;9.05;3.22;;;;;;;;;;5008091;28;20033;-75
2022/06/14 09:05:15;;;;;;;7.43;2.75;;;;;;;;;;5011603;28;20018;-75
2022/06/14 09:08:03;;;;;;;13.77;3.60;;;;;;;;;;4948986;28;20039;-75
2022/06/14 09:10:44;;;;;;;9.73;3.40;;;;;;;;;;4882865;29;20032;-76
2022/06/14 09:13:10;;;;;;;9.93;3.15;;;;;;;;;;4893357;29;20076;-80
2022/06/14 09:16:05;;;;;;;13.55;7.13;;;;;;;;;;4893041;29;20041;-76
2022/06/14 09:18:39;;;;;;;9.00;2.72;;;;;;;;;;4800299;29;20049;-74
2022/06/14 09:21:16;;;;;;;5.78;2.60;;;;;;;;;;4802224;29;20047;-72
2022/06/14 09:23:42;;;;;;;8.20;3.00;;;;;;;;;;4796903;29;20097;-79
2022/06/14 09:26:11;;;;;;;5.53;2.50;;;;;;;;;;4796589;29;20046;-77
2022/06/14 09:28:43;;;;;;;6.10;2.45;;;;;;;;;;4798678;29;20062;-82
2022/06/14 09:31:19;;;;;;;10.43;3.10;;;;;;;;;;4801680;29;20108;-79
2022/06/14 09:33:51;;;;;;;6.15;2.70;;;;;;;;;;4801425;29;20082;-76
2022/06/14 09:36:38;;;;;;;15.07;3.65;;;;;;;;;;4786714;29;20506;-79
2022/06/14 09:39:23;;;;;;;23.58;4.10;;;;;;;;;;4801516;29;20051;-74
2022/06/14 09:42:03;;;;;;;18.40;3.67;;;;;;;;;;4801548;29;20058;-78
2022/06/14 09:44:35;;;;;;;8.95;3.10;;;;;;;;;;4851196;29;20185;-86
2022/06/14 09:47:21;;;;;;;8.77;2.80;;;;;;;;;;4872940;29;20470;-79
2022/06/14 09:50:04;;;;;;;11.48;2.90;;;;;;;;;;4912114;29;20041;-74
2022/06/14 09:52:42;;;;;;;5.82;2.90;;;;;;;;;;4897092;29;20032;-76
2022/06/14 09:55:08;;;;;;;7.72;2.80;;;;;;;;;;4971069;28;20045;-80
2022/06/14 09:57:50;;;;;;;7.22;3.08;;;;;;;;;;4994336;28;20400;-75
2022/06/14 10:00:20;;;;;;;6.32;2.78;;;;;;;;;;5011561;28;20459;-78
2022/06/14 10:02:49;;;;;;;6.38;2.88;;;;;;;;;;5011487;28;20014;-83
2022/06/14 10:05:34;;;;;;;6.57;2.80;;;;;;;;;;5012420;28;20029;-81
2022/06/14 10:08:01;;;;;;;6.43;2.50;;;;;;;;;;5007459;28;20060;-75
2022/06/14 10:10:35;;;;;;;4.10;2.50;;;;;;;;;;5012271;28;20022;-80
2022/06/14 10:13:20;;;;;;;6.88;2.67;;;;;;;;;;5011629;28;20041;-83
2022/06/14 10:15:52;;;;;;;5.97;2.30;;;;;;;;;;5011785;28;20026;-81
2022/06/14 10:18:19;;;;;;;22.45;3.65;;;;;;;;;;5011247;28;20022;-76
2022/06/14 10:20:56;;;;;;;6.20;2.63;;;;;;;;;;5013690;28;20026;-83
2022/06/14 10:23:35;;;;;;;6.30;2.90;;;;;;;;;;5014671;28;20026;-75
2022/06/14 10:28:54;;;;;;;10.80;2.55;;;;;;;;;;5015126;28;20041;-80
2022/06/14 10:31:39;;;;;;;7.35;3.00;;;;;;;;;;5015098;28;20471;-76
2022/06/14 10:34:12;;;;;;;4.60;2.83;;;;;;;;;;5014020;28;20034;-80
2022/06/14 10:36:43;;;;;;;4.78;2.45;;;;;;;;;;5014443;28;20053;-73
2022/06/14 10:39:34;;;;;;;6.00;2.67;;;;;;;;;;5014443;28;20084;-74
2022/06/14 10:42:18;;;;;;;7.30;2.40;;;;;;;;;;5014317;28;20034;-81
2022/06/14 10:44:51;;;;;;;6.70;3.28;;;;;;;;;;5005612;28;20024;-81
2022/06/14 10:47:29;;;;;;;4.55;2.75;;;;;;;;;;5013829;28;20075;-75
2022/06/14 10:50:05;;;;;;;7.25;2.72;;;;;;;;;;5014965;28;20061;-82
2022/06/14 10:52:43;;;;;;;5.40;2.42;;;;;;;;;;5014407;28;20369;-77
2022/06/14 10:55:11;;;;;;;4.63;2.75;;;;;;;;;;5014497;28;20045;-78
2022/06/14 10:57:57;;;;;;;9.57;3.00;;;;;;;;;;5014559;28;20017;-75
2022/06/14 11:00:29;;;;;;;6.90;2.65;;;;;;;;;;4967706;28;20046;-82
2022/06/14 11:03:11;;;;;;;6.30;3.30;;;;;;;;;;4973383;28;20034;-81
2022/06/14 11:05:42;;;;;;;5.93;2.67;;;;;;;;;;4955720;28;20039;-81
2022/06/14 11:08:30;;;;;;;5.50;2.47;;;;;;;;;;4956503;28;20528;-79
2022/06/14 11:11:14;;;;;;;4.40;2.60;;;;;;;;;;4960520;28;20043;-80
2022/06/14 11:13:43;;;;;;;10.35;3.00;;;;;;;;;;4973161;28;20122;-76
2022/06/14 11:16:21;;;;;;;6.53;2.60;;;;;;;;;;4971585;28;20018;-74
2022/06/14 11:18:54;;;;;;;5.18;2.60;;;;;;;;;;4952941;28;20043;-81
2022/06/14 11:21:32;;;;;;;5.97;2.70;;;;;;;;;;4971669;28;20054;-77
2022/06/14 11:24:07;;;;;;;8.48;3.00;;;;;;;;;;4968991;28;20043;-81
2022/06/14 11:26:56;;;;;;;6.15;2.80;;;;;;;;;;4966461;28;20038;-78
2022/06/14 11:29:31;;;;;;;7.20;2.70;;;;;;;;;;4962466;28;20039;-79
2022/06/14 11:32:23;;;;;;;10.52;3.10;;;;;;;;;;4973057;28;20546;-78
2022/06/14 11:34:55;;;;;;;9.63;2.80;;;;;;;;;;4956691;28;20070;-74
2022/06/14 11:37:35;;;;;;;7.40;2.90;;;;;;;;;;4968691;28;20053;-78
2022/06/14 11:40:15;;;;;;;6.15;2.97;;;;;;;;;;5013875;28;20037;-80
2022/06/14 11:42:44;;;;;;;7.50;2.63;;;;;;;;;;5013034;28;20037;-77
2022/06/14 11:45:19;;;;;;;8.25;2.72;;;;;;;;;;5013088;28;20037;-81
2022/06/14 11:47:57;;;;;;;8.82;3.22;;;;;;;;;;5013466;28;20010;-74
2022/06/14 11:50:35;;;;;;;5.93;2.70;;;;;;;;;;5013055;28;20026;-79
2022/06/14 11:53:04;;;;;;;5.43;2.70;;;;;;;;;;5013556;28;20029;-78
2022/06/14 11:55:44;;;;;;;5.22;2.67;;;;;;;;;;5013940;28;20030;-83
2022/06/14 11:58:13;;;;;;;15.32;2.50;;;;;;;;;;5013711;28;20380;-81
2022/06/14 12:00:44;;;;;;;14.10;3.13;;;;;;;;;;5013084;28;20041;-87
2022/06/14 12:03:17;;;;;;;4.47;2.35;;;;;;;;;;5013353;28;20105;-87
2022/06/14 12:05:49;;;;;;;7.80;2.80;;;;;;;;;;5013776;28;20041;-87
2022/06/14 12:08:27;;;;;;;9.73;2.70;;;;;;;;;;5013687;28;20056;-87
2022/06/14 12:10:56;;;;;;;5.05;2.50;;;;;;;;;;5013194;28;20052;-73
2022/06/14 12:13:22;;;;;;;5.85;2.70;;;;;;;;;;5012866;28;20125;-82
2022/06/14 12:15:58;;;;;;;5.97;2.67;;;;;;;;;;5013929;28;20045;-84
2022/06/14 12:18:28;;;;;;;4.32;2.67;;;;;;;;;;5013608;28;20026;-88
2022/06/14 12:21:13;;;;;;;14.32;3.65;;;;;;;;;;5011628;28;20046;-85
2022/06/14 12:23:39;;;;;;;32.35;6.32;;;;;;;;;;5012313;28;20065;-84
2022/06/14 12:26:37;;;;;;;11.95;3.35;;;;;;;;;;5012396;28;20060;-85
2022/06/14 12:29:20;;;;;;;20.63;4.18;;;;;;;;;;5012087;28;20036;-78
2022/06/14 12:31:55;;;;;;;6.20;2.75;;;;;;;;;;5001216;28;20018;-81
2022/06/14 12:34:31;;;;;;;9.27;3.30;;;;;;;;;;5011769;28;20033;-81
2022/06/14 12:37:20;;;;;;;15.52;3.03;;;;;;;;;;5012630;28;20033;-73
2022/06/14 12:39:57;;;;;;;12.57;3.20;;;;;;;;;;4973630;28;20051;-78
2022/06/14 12:42:28;;;;;;;5.53;2.47;;;;;;;;;;4972766;28;20035;-91
2022/06/14 12:45:00;;;;;;;50.13;8.02;;;;;;;;;;4973040;28;20022;-73
2022/06/14 12:47:46;;;;;;;18.42;3.47;;;;;;;;;;4973685;28;20485;-75
2022/06/14 12:50:16;;;;;;;28.63;3.60;;;;;;;;;;4973262;28;20033;-74
2022/06/14 12:52:46;;;;;;;11.90;2.92;;;;;;;;;;4973267;28;20041;-71
2022/06/14 12:55:18;;;;;;;17.15;3.63;;;;;;;;;;4973799;28;20035;-80
2022/06/14 12:58:00;;;;;;;28.83;4.65;;;;;;;;;;4971389;28;20393;-74
2022/06/14 13:00:29;;;;;;;11.68;3.25;;;;;;;;;;4971731;28;20030;-77
2022/06/14 13:03:00;;;;;;;10.55;3.00;;;;;;;;;;4972337;28;20026;-78
2022/06/14 13:05:33;;;;;;;13.32;3.13;;;;;;;;;;4972863;28;20098;-78
2022/06/14 13:08:05;;;;;;;13.32;3.85;;;;;;;;;;4970564;28;20035;-76
2022/06/14 13:10:46;;;;;;;30.73;5.82;;;;;;;;;;4973210;28;20559;-72
2022/06/14 13:13:12;;;;;;;5.95;2.75;;;;;;;;;;4961032;28;20101;-78
2022/06/14 13:15:51;;;;;;;15.80;4.25;;;;;;;;;;4972866;28;20031;-72
2022/06/14 13:18:37;;;;;;;38.78;4.50;;;;;;;;;;4972483;28;20384;-76
2022/06/14 13:21:06;;;;;;;7.25;3.13;;;;;;;;;;4969787;28;20046;-74
2022/06/14 13:23:42;;;;;;;20.15;4.63;;;;;;;;;;4973227;28;20429;-78
2022/06/14 13:26:28;;;;;;;22.38;5.65;;;;;;;;;;4972064;28;20023;-78
2022/06/14 13:29:01;;;;;;;14.48;3.20;;;;;;;;;;4969491;28;20030;-72
2022/06/14 13:31:42;;;;;;;14.90;3.75;;;;;;;;;;4970767;28;20030;-75
2022/06/14 13:34:25;;;;;;;247.55;25.48;;;;;;;;;;4972937;28;20042;-71
2022/06/14 13:36:51;;;;;;;17.38;3.83;;;;;;;;;;4972004;28;20469;-73
2022/06/14 13:39:36;;;;;;;13.65;3.83;;;;;;;;;;4980208;28;20061;-81
2022/06/14 13:42:04;;;;;;;13.65;3.38;;;;;;;;;;4992773;28;20026;-76
2022/06/14 13:44:51;;;;;;;26.23;4.07;;;;;;;;;;4979823;28;20019;-70
2022/06/14 13:47:26;;;;;;;67.10;7.63;;;;;;;;;;4975311;28;20490;-87
2022/06/14 13:49:59;;;;;;;16.60;3.20;;;;;;;;;;4984769;28;20027;-78
2022/06/14 13:52:27;;;;;;;13.57;3.10;;;;;;;;;;4977778;28;20031;-67
2022/06/14 13:55:05;;;;;;;9.35;3.10;;;;;;;;;;4994515;28;20034;-69
2022/06/14 13:57:38;;;;;;;5.82;2.88;;;;;;;;;;4989976;28;20027;-71
2022/06/14 14:00:04;;;;;;;;;;;;;;;;;;4980637;28;20507;-73
2022/06/14 14:02:43;;;;;;;7.45;2.75;;;;;;;;;;4981259;28;19910;-70
2022/06/14 14:05:27;;;;;;;7.82;3.03;;;;;;;;;;4987502;28;20128;-78
2022/06/14 14:07:56;;;;;;;7.40;3.00;;;;;;;;;;4985614;28;20101;-74
2022/06/14 14:10:35;;;;;;;8.98;4.15;;;;;;;;;;4978410;28;20030;-78
2022/06/14 14:13:05;;;;;;;8.30;3.15;;;;;;;;;;4981613;28;20084;-75
2022/06/14 14:15:42;;;;;;;6.28;2.97;;;;;;;;;;4991579;28;20031;-74
2022/06/14 14:18:26;;;;;;;17.50;3.45;;;;;;;;;;4984942;28;20038;-74
2022/06/14 14:20:55;;;;;;;8.55;3.33;;;;;;;;;;4978789;28;20035;-72
2022/06/14 14:23:40;;;;;;;6.78;3.00;;;;;;;;;;4990240;28;20027;-74
2022/06/14 14:26:06;;;;;;;14.82;3.45;;;;;;;;;;4979095;28;20035;-71
2022/06/14 14:28:42;;;;;;;8.38;2.75;;;;;;;;;;4986175;28;20166;-75
2022/06/14 14:31:14;;;;;;;9.27;2.95;;;;;;;;;;4991880;28;20027;-88
2022/06/14 14:33:54;;;;;;;10.82;3.30;;;;;;;;;;4981345;28;20068;-72
2022/06/14 14:36:34;;;;;;;14.30;3.38;;;;;;;;;;4978219;28;20113;-79
2022/06/14 14:39:10;;;;;;;6.80;2.78;;;;;;;;;;4999821;28;20053;-83
2022/06/14 14:41:42;;;;;;;8.57;2.80;;;;;;;;;;5014026;28;20488;-72
2022/06/14 14:44:29;;;;;;;8.20;2.67;;;;;;;;;;5012872;28;20499;-74
2022/06/14 14:47:07;;;;;;;10.23;2.90;;;;;;;;;;4931318;29;20047;-72
2022/06/14 14:49:36;;;;;;;8.32;2.92;;;;;;;;;;4929870;29;20043;-74
2022/06/14 14:52:24;;;;;;;8.02;3.00;;;;;;;;;;4934220;29;20123;-78
2022/06/14 14:54:53;;;;;;;4.72;2.60;;;;;;;;;;4861104;29;20125;-78
2022/06/14 14:57:27;;;;;;;10.75;2.88;;;;;;;;;;4860705;29;20046;-74
2022/06/14 14:59:56;;;;;;;5.28;2.45;;;;;;;;;;4862012;29;20038;-76
2022/06/14 15:05:21;;;;;;;7.18;2.65;;;;;;;;;;4859897;29;20526;-72
2022/06/14 15:07:52;;;;;;;8.90;2.80;;;;;;;;;;4858410;29;20048;-88
2022/06/14 15:10:23;;;;;;;6.30;2.95;;;;;;;;;;4865357;29;20052;-85
2022/06/14 15:12:49;;;;;;;9.75;3.03;;;;;;;;;;4857846;29;20085;-80
2022/06/14 15:15:15;;;;;;;5.82;2.88;;;;;;;;;;4858652;29;20410;-84
2022/06/14 15:20:53;;;;;;;9.52;2.60;;;;;;;;;;4856008;29;20045;-74
2022/06/14 15:23:30;;;;;;;7.30;3.47;;;;;;;;;;4857247;29;20526;-72
2022/06/14 15:25:56;;;;;;;4.80;2.95;;;;;;;;;;4879961;29;20076;-81
2022/06/14 15:28:24;;;;;;;6.13;2.80;;;;;;;;;;4877224;29;20028;-73
2022/06/14 15:30:58;;;;;;;6.45;2.70;;;;;;;;;;4882434;29;20032;-77
2022/06/14 15:33:27;;;;;;;12.75;2.83;;;;;;;;;;4930857;29;20048;-71
2022/06/14 15:35:54;;;;;;;5.63;2.38;;;;;;;;;;4934735;29;20046;-74
2022/06/14 15:38:26;;;;;;;7.25;2.78;;;;;;;;;;4931368;29;20043;-83